Time;durP1;ratioP1;P1;durP2;ratioP2;P2;SDS_P1;SDS_P2;PMS_P1;PMS_P2;Temp;Humidity;BMP_temperature;BMP_pressure;BME280_temperature;BME280_humidity;BME280_pressure;Samples;Min_cycle;Max_cycle;Signal;HPM_P1;HPM_P2
2022/06/01 00:01:36;;;;;;;;;;;14.30;95.50;;;;;;4304827;33;44515;-78
2022/06/01 00:04:03;;;;;;;;;;;14.30;95.50;;;;;;4317910;33;44275;-78
2022/06/01 00:06:31;;;;;;;;;;;14.30;95.40;;;;;;4304653;33;45973;-78
2022/06/01 00:08:58;;;;;;;;;;;14.30;95.50;;;;;;4304786;33;44337;-78
2022/06/01 00:11:25;;;;;;;;;;;14.30;95.50;;;;;;4318054;33;44006;-78
2022/06/01 00:13:53;;;;;;;;;;;14.30;95.40;;;;;;4304737;33;44067;-78
2022/06/01 00:16:22;;;;;;;;;;;14.30;95.30;;;;;;4304439;33;44620;-78
2022/06/01 00:18:49;;;;;;;;;;;14.30;95.30;;;;;;4304299;33;43261;-78
2022/06/01 00:21:16;;;;;;;;;;;14.30;95.30;;;;;;4304449;33;44319;-78
2022/06/01 00:23:43;;;;;;;;;;;14.30;95.20;;;;;;4317299;33;43026;-78
2022/06/01 00:26:10;;;;;;;;;;;14.30;95.30;;;;;;4304155;33;43312;-78
2022/06/01 00:28:38;;;;;;;;;;;14.30;95.20;;;;;;4317226;33;43569;-78
2022/06/01 00:31:11;;;;;;;;;;;14.30;95.20;;;;;;4316863;33;44214;-78
2022/06/01 00:33:38;;;;;;;;;;;14.30;95.20;;;;;;4304566;33;44739;-78
2022/06/01 00:36:07;;;;;;;;;;;14.30;95.30;;;;;;4303876;33;46029;-78
2022/06/01 00:38:37;;;;;;;;;;;14.30;95.20;;;;;;4317017;33;44309;-78
2022/06/01 00:41:04;;;;;;;;;;;14.30;95.10;;;;;;4304097;33;42701;-78
2022/06/01 00:43:45;;;;;;;;;;;14.20;95.10;;;;;;4304046;33;43112;-78
2022/06/01 00:46:13;;;;;;;;;;;14.20;95.10;;;;;;4303997;33;44074;-78
2022/06/01 00:48:46;;;;;;;;;;;14.20;95.20;;;;;;4304269;33;44564;-78
2022/06/01 00:51:14;;;;;;;;;;;14.20;95.10;;;;;;4304635;33;46129;-78
2022/06/01 00:53:42;;;;;;;;;;;14.20;95.10;;;;;;4303950;33;44070;-78
2022/06/01 00:56:17;;;;;;;;;;;14.20;95.10;;;;;;4317547;33;20224;-78
2022/06/01 00:58:45;;;;;;;;;;;14.20;95.10;;;;;;4303613;33;43296;-78
2022/06/01 01:01:16;;;;;;;;;;;14.10;94.90;;;;;;4303583;33;43840;-79
2022/06/01 01:03:45;;;;;;;;;;;14.00;94.80;;;;;;4303776;33;44290;-78
2022/06/01 01:06:17;;;;;;;;;;;14.00;95.00;;;;;;4316893;33;44306;-78
2022/06/01 01:08:48;;;;;;;;;;;14.00;95.00;;;;;;4317176;33;44085;-77
2022/06/01 01:11:18;;;;;;;;;;;14.00;95.00;;;;;;4317032;33;42999;-79
2022/06/01 01:13:46;;;;;;;;;;;14.00;95.10;;;;;;4304048;33;45836;-78
2022/06/01 01:16:14;;;;;;;;;;;13.90;94.90;;;;;;4303374;33;44161;-79
2022/06/01 01:18:43;;;;;;;;;;;13.90;95.20;;;;;;4317002;33;44242;-78
2022/06/01 01:21:29;;;;;;;;;;;14.00;95.00;;;;;;4303484;33;43086;-78
2022/06/01 01:24:20;;;;;;;;;;;14.00;95.00;;;;;;4303764;33;43325;-78
2022/06/01 01:26:50;;;;;;;;;;;14.00;95.00;;;;;;4304250;33;21575;-78
2022/06/01 01:29:34;;;;;;;;;;;13.90;95.00;;;;;;4303304;33;44298;-78
2022/06/01 01:32:02;;;;;;;;;;;13.90;94.70;;;;;;4316882;33;44233;-78
2022/06/01 01:34:29;;;;;;;;;;;13.90;94.90;;;;;;4316486;33;42319;-78
2022/06/01 01:36:59;;;;;;;;;;;13.80;94.50;;;;;;4316232;33;43165;-78
2022/06/01 01:39:27;;;;;;;;;;;13.80;94.80;;;;;;4303729;33;44243;-78
2022/06/01 01:41:55;;;;;;;;;;;13.80;94.90;;;;;;4303023;33;44804;-77
2022/06/01 01:44:28;;;;;;;;;;;13.80;94.70;;;;;;4303312;33;45502;-78
2022/06/01 01:46:56;;;;;;;;;;;13.80;94.60;;;;;;4303405;33;42745;-77
2022/06/01 01:49:30;;;;;;;;;;;13.80;94.50;;;;;;4303447;33;43104;-78
2022/06/01 01:52:00;;;;;;;;;;;13.80;94.60;;;;;;4316667;33;46038;-77
2022/06/01 01:54:31;;;;;;;;;;;13.80;94.70;;;;;;4316599;33;45254;-78
2022/06/01 01:57:07;;;;;;;;;;;13.80;94.70;;;;;;4303989;33;20048;-78
2022/06/01 01:59:46;;;;;;;;;;;13.80;94.70;;;;;;4302976;33;43995;-78
2022/06/01 02:02:33;;;;;;;;;;;13.80;94.70;;;;;;4303034;33;45453;-77
2022/06/01 02:08:09;;;;;;;;;;;13.80;94.60;;;;;;4316332;33;45527;-78
2022/06/01 02:13:26;;;;;;;;;;;13.70;94.50;;;;;;4316395;33;45434;-78
2022/06/01 02:15:54;;;;;;;;;;;13.70;94.60;;;;;;4315887;33;43762;-79
2022/06/01 02:18:24;;;;;;;;;;;13.70;94.50;;;;;;4316155;33;43454;-79
2022/06/01 02:20:57;;;;;;;;;;;13.70;94.30;;;;;;4303209;33;44861;-79
2022/06/01 02:23:24;;;;;;;;;;;13.70;94.30;;;;;;4316207;33;44753;-79
2022/06/01 02:25:53;;;;;;;;;;;13.60;94.10;;;;;;4302729;33;43881;-79
2022/06/01 02:28:20;;;;;;;;;;;13.60;94.00;;;;;;4304097;33;20050;-79
2022/06/01 02:30:48;;;;;;;;;;;13.60;94.10;;;;;;4302468;33;45010;-80
2022/06/01 02:33:17;;;;;;;;;;;13.60;94.00;;;;;;4302480;33;42754;-79
2022/06/01 02:35:46;;;;;;;;;;;13.50;94.20;;;;;;4302409;33;45777;-79
2022/06/01 02:38:20;;;;;;;;;;;13.50;94.20;;;;;;4303032;33;46015;-79
2022/06/01 02:40:47;;;;;;;;;;;13.60;94.20;;;;;;4303043;33;44765;-80
2022/06/01 02:43:14;;;;;;;;;;;13.50;93.90;;;;;;4302766;33;46186;-79
2022/06/01 02:45:42;;;;;;;;;;;13.50;93.90;;;;;;4302304;33;43502;-80
2022/06/01 02:48:13;;;;;;;;;;;13.50;94.00;;;;;;4302509;33;44330;-80
2022/06/01 02:50:40;;;;;;;;;;;13.40;94.30;;;;;;4302892;33;44098;-79
2022/06/01 02:53:07;;;;;;;;;;;13.50;93.90;;;;;;4303978;33;45686;-79
2022/06/01 02:55:34;;;;;;;;;;;13.40;93.70;;;;;;4305424;33;43158;-79
2022/06/01 02:58:05;;;;;;;;;;;13.40;93.90;;;;;;4305685;33;45168;-79
2022/06/01 03:00:34;;;;;;;;;;;13.30;93.80;;;;;;4305388;33;43895;-80
2022/06/01 03:03:02;;;;;;;;;;;13.30;93.80;;;;;;4305247;33;44207;-79
2022/06/01 03:05:31;;;;;;;;;;;13.30;94.00;;;;;;4318286;33;44216;-79
2022/06/01 03:07:58;;;;;;;;;;;13.30;94.00;;;;;;4318208;33;44618;-78
2022/06/01 03:10:25;;;;;;;;;;;13.30;94.10;;;;;;4305730;33;44366;-79
2022/06/01 03:12:55;;;;;;;;;;;13.20;93.80;;;;;;4305484;33;44806;-79
2022/06/01 03:15:24;;;;;;;;;;;13.20;93.90;;;;;;4305580;33;43777;-78
2022/06/01 03:17:53;;;;;;;;;;;13.20;93.80;;;;;;4305086;33;45583;-79
2022/06/01 03:20:25;;;;;;;;;;;13.20;93.70;;;;;;4305538;33;45448;-78
2022/06/01 03:22:56;;;;;;;;;;;13.20;93.90;;;;;;4318579;33;42866;-78
2022/06/01 03:25:24;;;;;;;;;;;13.10;93.90;;;;;;4304845;33;43433;-79
2022/06/01 03:27:52;;;;;;;;;;;13.10;93.70;;;;;;4305611;33;44219;-77
2022/06/01 03:30:22;;;;;;;;;;;13.10;93.80;;;;;;4305691;33;20006;-77
2022/06/01 03:32:50;;;;;;;;;;;13.10;93.90;;;;;;4318234;33;37841;-78
2022/06/01 03:35:20;;;;;;;;;;;13.10;93.90;;;;;;4304898;33;42579;-78
2022/06/01 03:37:48;;;;;;;;;;;13.10;93.70;;;;;;4305260;33;43753;-78
2022/06/01 03:40:17;;;;;;;;;;;13.10;93.80;;;;;;4305135;33;44610;-77
2022/06/01 03:42:44;;;;;;;;;;;13.10;93.90;;;;;;4305200;33;44604;-78
2022/06/01 03:47:57;;;;;;;;;;;13.00;93.70;;;;;;4317851;33;42912;-78
2022/06/01 03:50:25;;;;;;;;;;;13.00;93.80;;;;;;4304788;33;43789;-78
2022/06/01 03:52:53;;;;;;;;;;;13.00;93.90;;;;;;4318049;33;44955;-78
2022/06/01 03:55:23;;;;;;;;;;;13.00;93.70;;;;;;4318090;33;44591;-77
2022/06/01 03:57:51;;;;;;;;;;;13.00;93.80;;;;;;4305128;33;44232;-77
2022/06/01 04:00:25;;;;;;;;;;;12.90;93.70;;;;;;4305097;33;44801;-78
2022/06/01 04:02:52;;;;;;;;;;;12.90;93.90;;;;;;4317458;33;44234;-78
2022/06/01 04:05:23;;;;;;;;;;;12.90;93.80;;;;;;4303713;33;44096;-78
2022/06/01 04:07:50;;;;;;;;;;;12.90;94.00;;;;;;4304464;33;42832;-77
2022/06/01 04:10:20;;;;;;;;;;;12.90;94.40;;;;;;4304775;33;45770;-78
2022/06/01 04:12:47;;;;;;;;;;;12.90;94.10;;;;;;4304732;33;44327;-78
2022/06/01 04:15:15;;;;;;;;;;;12.80;94.20;;;;;;4317910;33;44411;-77
2022/06/01 04:17:42;;;;;;;;;;;12.90;94.20;;;;;;4304594;33;46067;-78
2022/06/01 04:20:10;;;;;;;;;;;12.80;94.00;;;;;;4304271;33;45292;-77
2022/06/01 04:22:41;;;;;;;;;;;12.80;94.10;;;;;;4304762;33;45163;-78
2022/06/01 04:25:09;;;;;;;;;;;12.80;94.30;;;;;;4304255;33;43327;-78
2022/06/01 04:27:38;;;;;;;;;;;12.80;94.30;;;;;;4304174;33;44281;-78
2022/06/01 04:30:06;;;;;;;;;;;12.80;94.40;;;;;;4304546;33;43225;-78
2022/06/01 04:32:33;;;;;;;;;;;12.70;94.40;;;;;;4317602;33;43219;-78
2022/06/01 04:35:04;;;;;;;;;;;12.70;94.60;;;;;;4304112;33;44299;-79
2022/06/01 04:37:31;;;;;;;;;;;12.70;94.60;;;;;;4304574;33;45855;-78
2022/06/01 04:40:02;;;;;;;;;;;12.70;94.70;;;;;;4317321;33;45806;-78
2022/06/01 04:42:29;;;;;;;;;;;12.70;94.70;;;;;;4303946;33;44192;-78
2022/06/01 04:44:57;;;;;;;;;;;12.70;94.80;;;;;;4304335;33;44920;-78
2022/06/01 04:47:24;;;;;;;;;;;12.70;94.90;;;;;;4303846;33;46112;-78
2022/06/01 04:49:51;;;;;;;;;;;12.70;94.90;;;;;;4304023;33;42794;-78
2022/06/01 04:52:18;;;;;;;;;;;12.70;95.10;;;;;;4317274;33;45469;-78
2022/06/01 04:54:45;;;;;;;;;;;12.70;95.20;;;;;;4303803;33;43994;-78
2022/06/01 04:57:12;;;;;;;;;;;12.70;95.30;;;;;;4304195;33;43472;-80
2022/06/01 04:59:40;;;;;;;;;;;12.70;95.30;;;;;;4304220;33;43982;-78
2022/06/01 05:02:09;;;;;;;;;;;12.70;95.50;;;;;;4303725;33;44121;-78
2022/06/01 05:04:37;;;;;;;;;;;12.70;95.50;;;;;;4303991;33;45210;-78
2022/06/01 05:07:07;;;;;;;;;;;12.70;95.70;;;;;;4303435;33;43956;-78
2022/06/01 05:09:35;;;;;;;;;;;12.70;95.80;;;;;;4303843;33;42781;-79
2022/06/01 05:12:10;;;;;;;;;;;12.70;95.80;;;;;;4303824;33;45426;-76
2022/06/01 05:14:45;;;;;;;;;;;12.70;95.90;;;;;;4317296;33;43531;-78
2022/06/01 05:17:21;;;;;;;;;;;12.70;96.10;;;;;;4303840;33;44097;-78
2022/06/01 05:19:54;;;;;;;;;;;12.70;96.20;;;;;;4303888;33;45460;-78
2022/06/01 05:22:21;;;;;;;;;;;12.70;96.10;;;;;;4303792;33;45506;-79
2022/06/01 05:24:57;;;;;;;;;;;12.70;96.30;;;;;;4303860;33;43474;-78
2022/06/01 05:27:33;;;;;;;;;;;12.70;96.20;;;;;;4303704;33;43260;-78
2022/06/01 05:30:08;;;;;;;;;;;12.70;96.60;;;;;;4316928;33;43209;-77
2022/06/01 05:35:52;;;;;;;;;;;12.70;96.50;;;;;;4300117;33;42561;-76
2022/06/01 05:38:24;;;;;;;;;;;12.80;96.50;;;;;;4301746;33;44282;-76
2022/06/01 05:40:54;;;;;;;;;;;12.70;96.50;;;;;;4302118;33;43764;-76
2022/06/01 05:43:26;;;;;;;;;;;12.80;96.60;;;;;;4301604;33;43248;-76
2022/06/01 05:46:01;;;;;;;;;;;12.80;96.70;;;;;;4302031;33;43588;-75
2022/06/01 05:48:33;;;;;;;;;;;12.80;96.70;;;;;;4302255;33;43845;-76
2022/06/01 05:51:00;;;;;;;;;;;12.80;96.60;;;;;;4288948;33;43024;-76
2022/06/01 05:53:27;;;;;;;;;;;12.80;97.10;;;;;;4301246;33;43489;-76
2022/06/01 05:55:54;;;;;;;;;;;12.80;97.10;;;;;;4288189;33;43948;-76
2022/06/01 05:58:24;;;;;;;;;;;12.90;97.30;;;;;;4301550;33;44985;-77
2022/06/01 06:00:54;;;;;;;;;;;12.90;97.30;;;;;;4288853;33;44678;-76
2022/06/01 06:03:26;;;;;;;;;;;12.80;97.20;;;;;;4289284;33;20037;-76
2022/06/01 06:06:14;;;;;;;;;;;12.90;97.60;;;;;;4289086;33;43717;-77
2022/06/01 06:08:51;;;;;;;;;;;12.90;97.70;;;;;;4288565;33;43249;-75
2022/06/01 06:11:26;;;;;;;;;;;12.90;97.80;;;;;;4288775;33;45316;-75
2022/06/01 06:14:01;;;;;;;;;;;12.90;97.90;;;;;;4301289;33;43055;-76
2022/06/01 06:16:32;;;;;;;;;;;12.90;97.60;;;;;;4301457;33;44595;-75
2022/06/01 06:19:02;;;;;;;;;;;12.90;97.60;;;;;;4288389;33;44180;-75
2022/06/01 06:21:30;;;;;;;;;;;12.90;97.80;;;;;;4300872;33;43914;-76
2022/06/01 06:24:00;;;;;;;;;;;13.00;98.10;;;;;;4288203;33;43455;-76
2022/06/01 06:26:28;;;;;;;;;;;12.90;98.20;;;;;;4288236;33;43726;-76
2022/06/01 06:29:00;;;;;;;;;;;12.90;98.30;;;;;;4288437;33;44865;-76
2022/06/01 06:31:31;;;;;;;;;;;13.00;98.60;;;;;;4301123;33;43428;-76
2022/06/01 06:34:01;;;;;;;;;;;13.00;98.60;;;;;;4289157;33;20002;-76
2022/06/01 06:36:29;;;;;;;;;;;13.00;98.80;;;;;;4288316;33;44314;-76
2022/06/01 06:38:56;;;;;;;;;;;13.00;98.60;;;;;;4301483;33;43186;-76
2022/06/01 06:41:24;;;;;;;;;;;13.00;98.70;;;;;;4288360;33;43630;-76
2022/06/01 06:43:52;;;;;;;;;;;13.00;99.00;;;;;;4300921;33;44206;-77
2022/06/01 06:46:21;;;;;;;;;;;13.00;98.90;;;;;;4288355;33;43293;-76
2022/06/01 06:48:49;;;;;;;;;;;13.00;98.70;;;;;;4301107;33;42074;-76
2022/06/01 06:51:17;;;;;;;;;;;13.00;99.10;;;;;;4288434;33;43844;-76
2022/06/01 06:53:44;;;;;;;;;;;13.10;99.00;;;;;;4301157;33;45012;-77
2022/06/01 06:56:12;;;;;;;;;;;13.10;99.00;;;;;;4287849;33;45619;-76
2022/06/01 06:58:40;;;;;;;;;;;13.10;99.00;;;;;;4287879;33;43012;-76
2022/06/01 07:01:07;;;;;;;;;;;13.10;99.50;;;;;;4288368;33;45067;-76
2022/06/01 07:03:35;;;;;;;;;;;13.10;99.10;;;;;;4287931;33;45244;-76
2022/06/01 07:06:17;;;;;;;;;;;13.10;99.40;;;;;;4288272;33;43564;-77
2022/06/01 07:08:47;;;;;;;;;;;13.10;99.20;;;;;;4301302;33;43700;-76
2022/06/01 07:11:15;;;;;;;;;;;13.10;99.60;;;;;;4287717;33;45528;-77
2022/06/01 07:13:42;;;;;;;;;;;13.10;99.50;;;;;;4288066;33;42933;-76
2022/06/01 07:16:14;;;;;;;;;;;13.20;99.30;;;;;;4288169;33;43484;-76
2022/06/01 07:18:43;;;;;;;;;;;13.20;99.30;;;;;;4301188;33;44317;-77
2022/06/01 07:21:10;;;;;;;;;;;13.20;99.50;;;;;;4288182;33;45052;-76
2022/06/01 07:23:37;;;;;;;;;;;13.20;99.40;;;;;;4300769;33;44184;-76
2022/06/01 07:26:06;;;;;;;;;;;13.20;99.60;;;;;;4300645;33;43722;-76
2022/06/01 07:28:33;;;;;;;;;;;13.20;99.50;;;;;;4287702;33;45575;-76
2022/06/01 07:31:00;;;;;;;;;;;13.20;99.70;;;;;;4301268;33;44203;-76
2022/06/01 07:33:28;;;;;;;;;;;13.20;99.90;;;;;;4300883;33;45728;-77
2022/06/01 07:35:56;;;;;;;;;;;13.30;99.60;;;;;;4287871;33;42562;-77
2022/06/01 07:43:57;;;;;;;;;;;13.20;99.70;;;;;;4303850;33;44850;-77
2022/06/01 07:46:25;;;;;;;;;;;13.20;99.90;;;;;;4303076;33;45813;-76
2022/06/01 07:48:53;;;;;;;;;;;13.20;99.70;;;;;;4290243;33;43892;-76
2022/06/01 07:51:43;;;;;;;;;;;13.30;99.80;;;;;;4303551;33;44129;-76
2022/06/01 07:54:14;;;;;;;;;;;13.30;99.70;;;;;;4291034;33;43152;-76
2022/06/01 07:56:41;;;;;;;;;;;13.30;99.90;;;;;;4303369;33;43504;-77
2022/06/01 07:59:09;;;;;;;;;;;13.30;99.70;;;;;;4303052;33;44947;-76
2022/06/01 08:01:37;;;;;;;;;;;13.30;99.80;;;;;;4303084;33;42152;-76
2022/06/01 08:04:04;;;;;;;;;;;13.30;99.90;;;;;;4290348;33;43323;-77
2022/06/01 08:06:33;;;;;;;;;;;13.30;99.80;;;;;;4304271;33;20002;-76
2022/06/01 08:09:20;;;;;;;;;;;13.40;99.90;;;;;;4292597;33;46317;-76
2022/06/01 08:14:33;;;;;;;;;;;13.40;99.60;;;;;;4303015;33;42676;-77
2022/06/01 08:17:01;;;;;;;;;;;13.40;99.70;;;;;;4303050;33;43832;-76
2022/06/01 08:19:28;;;;;;;;;;;13.40;99.50;;;;;;4289853;33;43443;-77
2022/06/01 08:21:55;;;;;;;;;;;13.40;99.90;;;;;;4303139;33;42605;-77
2022/06/01 08:24:22;;;;;;;;;;;13.40;99.80;;;;;;4290252;33;43944;-77
2022/06/01 08:26:50;;;;;;;;;;;13.40;99.90;;;;;;4302603;33;44975;-77
2022/06/01 08:29:17;;;;;;;;;;;13.40;99.70;;;;;;4289990;33;43186;-76
2022/06/01 08:31:44;;;;;;;;;;;13.40;99.50;;;;;;4289549;33;43891;-77
2022/06/01 08:34:15;;;;;;;;;;;13.40;99.60;;;;;;4289484;33;43550;-76
2022/06/01 08:36:42;;;;;;;;;;;13.40;99.50;;;;;;4303404;33;20103;-77
2022/06/01 08:39:09;;;;;;;;;;;13.40;99.60;;;;;;4302584;33;42464;-76
2022/06/01 08:41:38;;;;;;;;;;;13.40;99.40;;;;;;4289519;33;44441;-77
2022/06/01 08:44:06;;;;;;;;;;;13.50;99.50;;;;;;4290057;33;43898;-77
2022/06/01 08:46:34;;;;;;;;;;;13.50;99.50;;;;;;4289648;33;43791;-77
2022/06/01 08:49:05;;;;;;;;;;;13.50;99.50;;;;;;4289784;33;43877;-76
2022/06/01 08:51:32;;;;;;;;;;;13.50;99.80;;;;;;4289704;33;43303;-77
2022/06/01 08:54:01;;;;;;;;;;;13.50;99.70;;;;;;4289444;33;43765;-76
2022/06/01 08:56:42;;;;;;;;;;;13.50;99.50;;;;;;4302770;33;44050;-77
2022/06/01 08:59:09;;;;;;;;;;;13.50;99.40;;;;;;4302319;33;43358;-77
2022/06/01 09:01:44;;;;;;;;;;;13.50;99.40;;;;;;4302269;33;42878;-76
2022/06/01 09:04:18;;;;;;;;;;;13.50;99.50;;;;;;4289709;33;43773;-77
2022/06/01 09:06:54;;;;;;;;;;;13.60;99.40;;;;;;4290500;33;20408;-77
2022/06/01 09:09:26;;;;;;;;;;;13.60;99.10;;;;;;4302488;33;42665;-77
2022/06/01 09:11:54;;;;;;;;;;;13.60;99.20;;;;;;4302135;33;43881;-77
2022/06/01 09:14:43;;;;;;;;;;;13.60;99.40;;;;;;4289552;33;45076;-77
2022/06/01 09:17:10;;;;;;;;;;;13.60;99.30;;;;;;4289630;33;44207;-76
2022/06/01 09:22:37;;;;;;;;;;;13.60;99.10;;;;;;4302600;33;44184;-77
2022/06/01 09:25:06;;;;;;;;;;;13.70;99.00;;;;;;4302379;33;44315;-77
2022/06/01 09:27:36;;;;;;;;;;;13.60;98.80;;;;;;4301835;33;44602;-76
2022/06/01 09:30:19;;;;;;;;;;;13.70;98.70;;;;;;4301970;33;42834;-77
2022/06/01 09:33:05;;;;;;;;;;;13.70;98.60;;;;;;4302276;33;45615;-77
2022/06/01 09:35:38;;;;;;;;;;;13.70;98.50;;;;;;4301956;33;44480;-76
2022/06/01 09:38:11;;;;;;;;;;;13.60;98.50;;;;;;4302485;33;46023;-77
2022/06/01 09:40:39;;;;;;;;;;;13.70;98.70;;;;;;4289384;33;44054;-76
2022/06/01 09:43:06;;;;;;;;;;;13.70;98.50;;;;;;4289168;33;42909;-77
2022/06/01 09:45:46;;;;;;;;;;;13.70;98.70;;;;;;4301649;33;42698;-76
2022/06/01 09:48:14;;;;;;;;;;;13.80;98.70;;;;;;4288563;33;44006;-77
2022/06/01 09:50:42;;;;;;;;;;;13.70;98.40;;;;;;4289030;33;43187;-77
2022/06/01 09:53:20;;;;;;;;;;;13.80;98.20;;;;;;4288781;33;42970;-76
2022/06/01 09:55:53;;;;;;;;;;;13.80;98.10;;;;;;4288943;33;44610;-77
2022/06/01 10:06:54;;;;;;;;;;;13.80;97.50;;;;;;4301893;33;43479;-77
2022/06/01 10:09:26;;;;;;;;;;;13.80;97.50;;;;;;4289192;33;20006;-76
2022/06/01 10:11:54;;;;;;;;;;;13.80;97.40;;;;;;4288941;33;43175;-76
2022/06/01 10:14:27;;;;;;;;;;;13.80;97.30;;;;;;4301440;33;43002;-76
2022/06/01 10:16:54;;;;;;;;;;;13.80;97.30;;;;;;4288545;33;46006;-76
2022/06/01 10:19:31;;;;;;;;;;;13.90;97.40;;;;;;4288786;33;44086;-76
2022/06/01 10:22:17;;;;;;;;;;;13.90;97.30;;;;;;4288529;33;43888;-78
2022/06/01 10:24:52;;;;;;;;;;;13.90;97.20;;;;;;4288456;33;42607;-75
2022/06/01 10:27:24;;;;;;;;;;;13.90;97.00;;;;;;4288685;33;43434;-76
2022/06/01 10:30:15;;;;;;;;;;;13.90;97.10;;;;;;4288582;33;44310;-76
2022/06/01 10:32:47;;;;;;;;;;;13.90;97.10;;;;;;4287210;33;42539;-76
2022/06/01 10:35:28;;;;;;;;;;;13.90;96.90;;;;;;4288106;33;42612;-77
2022/06/01 10:38:17;;;;;;;;;;;14.00;97.00;;;;;;4288709;33;44382;-77
2022/06/01 10:40:47;;;;;;;;;;;14.00;96.90;;;;;;4295759;33;43922;-77
2022/06/01 10:43:38;;;;;;;;;;;14.00;96.70;;;;;;4287956;33;44184;-79
2022/06/01 10:46:05;;;;;;;;;;;14.00;96.70;;;;;;4301144;33;46029;-76
2022/06/01 10:48:42;;;;;;;;;;;14.00;96.80;;;;;;4288649;33;44037;-76
2022/06/01 10:51:19;;;;;;;;;;;14.10;97.00;;;;;;4288595;33;44276;-76
2022/06/01 10:54:05;;;;;;;;;;;14.10;97.30;;;;;;4288489;33;44083;-76
2022/06/01 10:56:33;;;;;;;;;;;14.10;97.40;;;;;;4288459;33;44635;-77
2022/06/01 10:59:05;;;;;;;;;;;14.20;97.40;;;;;;4288218;33;43277;-77
2022/06/01 11:01:40;;;;;;;;;;;14.20;97.30;;;;;;4288559;33;43464;-77
2022/06/01 11:04:26;;;;;;;;;;;14.20;97.30;;;;;;4288343;33;43755;-77
2022/06/01 11:07:12;;;;;;;;;;;14.20;97.30;;;;;;4301350;33;43862;-76
2022/06/01 11:10:00;;;;;;;;;;;14.30;97.30;;;;;;4288144;33;44343;-77
2022/06/01 11:12:46;;;;;;;;;;;14.30;97.30;;;;;;4289005;33;20396;-76
2022/06/01 11:15:16;;;;;;;;;;;14.20;97.20;;;;;;4290920;33;42555;-76
2022/06/01 11:17:46;;;;;;;;;;;14.30;97.10;;;;;;4290972;33;44990;-77
2022/06/01 11:20:17;;;;;;;;;;;14.30;97.10;;;;;;4291068;33;43281;-78
2022/06/01 11:22:44;;;;;;;;;;;14.30;97.00;;;;;;4304058;33;43363;-77
2022/06/01 11:25:26;;;;;;;;;;;14.40;96.90;;;;;;4290997;33;45816;-77
2022/06/01 11:27:56;;;;;;;;;;;14.40;96.60;;;;;;4290978;33;43589;-77
2022/06/01 11:30:35;;;;;;;;;;;14.40;96.70;;;;;;4303437;33;44442;-76
2022/06/01 11:33:05;;;;;;;;;;;14.40;96.50;;;;;;4291244;33;43481;-76
2022/06/01 11:35:36;;;;;;;;;;;14.40;96.00;;;;;;4290477;33;45807;-76
2022/06/01 11:38:09;;;;;;;;;;;14.40;96.10;;;;;;4303460;33;42929;-77
2022/06/01 11:40:57;;;;;;;;;;;14.40;96.20;;;;;;4290974;33;43466;-77
2022/06/01 11:43:33;;;;;;;;;;;14.40;95.40;;;;;;4304488;33;22404;-77
2022/06/01 11:46:14;;;;;;;;;;;14.50;95.30;;;;;;4303886;33;44191;-76
2022/06/01 11:48:48;;;;;;;;;;;14.50;95.40;;;;;;4291081;33;43670;-77
2022/06/01 11:51:21;;;;;;;;;;;14.50;95.40;;;;;;4290664;33;43321;-76
2022/06/01 11:54:00;;;;;;;;;;;14.50;95.40;;;;;;4290283;33;43474;-77
2022/06/01 11:56:35;;;;;;;;;;;14.50;95.50;;;;;;4303484;33;43042;-77
2022/06/01 11:59:08;;;;;;;;;;;14.50;95.80;;;;;;4290692;33;44455;-76
2022/06/01 12:01:44;;;;;;;;;;;14.60;95.80;;;;;;4290607;33;45426;-77
2022/06/01 12:04:11;;;;;;;;;;;14.60;95.70;;;;;;4303509;33;44339;-77
2022/06/01 12:06:58;;;;;;;;;;;14.60;96.00;;;;;;4291428;33;45417;-76
2022/06/01 12:09:38;;;;;;;;;;;14.60;95.90;;;;;;4290401;33;44147;-77
2022/06/01 12:12:08;;;;;;;;;;;14.60;96.10;;;;;;4290081;33;42627;-77
2022/06/01 12:14:38;;;;;;;;;;;14.60;96.00;;;;;;4290527;33;41930;-77
2022/06/01 12:17:20;;;;;;;;;;;14.70;95.80;;;;;;4290345;33;43344;-76
2022/06/01 12:20:09;;;;;;;;;;;14.70;95.70;;;;;;4290624;33;44219;-76
2022/06/01 12:28:51;;;;;;;;;;;14.80;95.50;;;;;;4300195;33;43325;-76
2022/06/01 12:31:30;;;;;;;;;;;14.80;94.90;;;;;;4289995;33;42723;-76
2022/06/01 12:34:04;;;;;;;;;;;14.90;94.60;;;;;;4287424;33;44748;-78
2022/06/01 12:36:46;;;;;;;;;;;14.90;94.20;;;;;;4287669;33;42926;-76
2022/06/01 12:39:17;;;;;;;;;;;14.90;93.90;;;;;;4287102;33;42898;-78
2022/06/01 12:41:46;;;;;;;;;;;14.90;94.20;;;;;;4287667;33;43511;-77
2022/06/01 12:44:13;;;;;;;;;;;14.90;93.90;;;;;;4287067;33;43052;-77
2022/06/01 12:46:48;;;;;;;;;;;15.00;94.00;;;;;;4288415;33;20054;-77
2022/06/01 12:49:24;;;;;;;;;;;15.00;94.10;;;;;;4287086;33;43926;-76
2022/06/01 12:51:57;;;;;;;;;;;15.00;93.30;;;;;;4287426;33;44228;-77
2022/06/01 12:54:34;;;;;;;;;;;15.10;92.50;;;;;;4287283;33;44306;-77
2022/06/01 12:57:01;;;;;;;;;;;15.10;92.60;;;;;;4287375;33;43895;-79
2022/06/01 12:59:30;;;;;;;;;;;15.10;92.70;;;;;;4288216;33;43936;-77
2022/06/01 13:01:59;;;;;;;;;;;15.10;92.60;;;;;;4287006;33;43253;-78
2022/06/01 13:04:34;;;;;;;;;;;15.20;92.70;;;;;;4287235;33;43353;-78
2022/06/01 13:07:01;;;;;;;;;;;15.20;92.40;;;;;;4287779;33;44168;-77
2022/06/01 13:09:30;;;;;;;;;;;15.20;92.20;;;;;;4286595;33;43812;-77
2022/06/01 13:12:05;;;;;;;;;;;15.20;91.90;;;;;;4288375;33;43937;-76
2022/06/01 13:14:34;;;;;;;;;;;15.20;91.70;;;;;;4286667;33;44275;-76
2022/06/01 13:17:10;;;;;;;;;;;15.20;92.20;;;;;;4288695;33;20073;-76
2022/06/01 13:19:39;;;;;;;;;;;15.30;92.50;;;;;;4287282;33;44066;-77
2022/06/01 13:22:06;;;;;;;;;;;15.20;92.70;;;;;;4286570;33;45058;-77
2022/06/01 13:24:42;;;;;;;;;;;15.20;92.70;;;;;;4286767;33;43172;-77
2022/06/01 13:27:10;;;;;;;;;;;15.30;92.90;;;;;;4287018;33;44218;-77
2022/06/01 13:29:44;;;;;;;;;;;15.20;93.20;;;;;;4286707;33;42986;-77
2022/06/01 13:32:12;;;;;;;;;;;15.30;93.20;;;;;;4286799;33;44444;-77
2022/06/01 13:34:51;;;;;;;;;;;15.30;93.40;;;;;;4286582;33;45053;-77
2022/06/01 13:37:28;;;;;;;;;;;15.30;93.60;;;;;;4285910;33;42993;-79
2022/06/01 13:40:00;;;;;;;;;;;15.30;93.60;;;;;;4286818;33;44137;-77
2022/06/01 13:42:32;;;;;;;;;;;15.30;93.80;;;;;;4286394;33;42890;-78
2022/06/01 13:45:05;;;;;;;;;;;15.30;94.00;;;;;;4287798;33;44655;-77
2022/06/01 13:47:39;;;;;;;;;;;15.30;94.00;;;;;;4286990;33;20006;-77
2022/06/01 13:50:15;;;;;;;;;;;15.30;94.00;;;;;;4286704;33;43611;-77
2022/06/01 13:52:45;;;;;;;;;;;15.40;94.00;;;;;;4287120;33;44051;-77
2022/06/01 13:55:18;;;;;;;;;;;15.40;93.90;;;;;;4286289;33;42246;-76
2022/06/01 13:57:49;;;;;;;;;;;15.40;94.00;;;;;;4285997;33;43274;-77
2022/06/01 14:00:18;;;;;;;;;;;15.40;93.90;;;;;;4286350;33;44183;-77
2022/06/01 14:02:51;;;;;;;;;;;15.40;94.00;;;;;;4286437;33;44912;-78
2022/06/01 14:05:22;;;;;;;;;;;15.40;94.00;;;;;;4286351;33;44042;-76
2022/06/01 14:07:55;;;;;;;;;;;15.40;93.90;;;;;;4286616;33;44234;-77
2022/06/01 14:10:33;;;;;;;;;;;15.40;93.60;;;;;;4286104;33;43644;-76
2022/06/01 14:13:00;;;;;;;;;;;15.50;93.80;;;;;;4286346;33;43792;-76
2022/06/01 14:15:28;;;;;;;;;;;15.50;93.80;;;;;;4286881;33;43162;-77
2022/06/01 14:17:55;;;;;;;;;;;15.50;93.70;;;;;;4286660;33;20042;-76
2022/06/01 14:20:22;;;;;;;;;;;15.50;93.60;;;;;;4286149;33;43530;-76
2022/06/01 14:22:49;;;;;;;;;;;15.50;93.70;;;;;;4285908;33;44184;-77
2022/06/01 14:30:48;;;;;;;;;;;15.50;94.10;;;;;;4287143;33;44939;-76
2022/06/01 14:33:15;;;;;;;;;;;15.60;94.20;;;;;;4286515;33;45702;-76
2022/06/01 14:35:43;;;;;;;;;;;15.60;93.80;;;;;;4288036;33;43976;-76
2022/06/01 14:38:11;;;;;;;;;;;15.60;93.80;;;;;;4288545;33;45797;-76
2022/06/01 14:40:38;;;;;;;;;;;15.70;93.90;;;;;;4288434;33;43642;-78
2022/06/01 14:43:07;;;;;;;;;;;15.70;94.20;;;;;;4300985;33;43195;-76
2022/06/01 14:45:35;;;;;;;;;;;15.70;94.20;;;;;;4301181;33;43473;-76
2022/06/01 14:48:07;;;;;;;;;;;15.80;94.10;;;;;;4301882;33;19998;-76
2022/06/01 14:50:37;;;;;;;;;;;15.80;94.00;;;;;;4288383;33;43581;-76
2022/06/01 14:53:11;;;;;;;;;;;15.80;94.30;;;;;;4288254;33;42846;-76
2022/06/01 14:55:48;;;;;;;;;;;15.80;94.30;;;;;;4288789;33;44120;-76
2022/06/01 14:58:23;;;;;;;;;;;15.80;94.00;;;;;;4300999;33;43806;-76
2022/06/01 15:01:01;;;;;;;;;;;15.80;93.70;;;;;;4288477;33;44736;-76
2022/06/01 15:03:32;;;;;;;;;;;15.80;94.00;;;;;;4288319;33;43956;-76
2022/06/01 15:06:10;;;;;;;;;;;15.80;94.00;;;;;;4288428;33;43275;-76
2022/06/01 15:08:42;;;;;;;;;;;15.80;94.10;;;;;;4288590;33;43841;-77
2022/06/01 15:11:11;;;;;;;;;;;15.80;93.90;;;;;;4288070;33;42587;-76
2022/06/01 15:13:44;;;;;;;;;;;15.90;93.90;;;;;;4301147;33;42883;-76
2022/06/01 15:16:17;;;;;;;;;;;15.90;94.00;;;;;;4288316;33;44247;-76
2022/06/01 15:18:48;;;;;;;;;;;15.90;93.70;;;;;;4290049;33;20392;-75
2022/06/01 15:21:18;;;;;;;;;;;15.90;94.00;;;;;;4300971;33;44154;-77
2022/06/01 15:23:56;;;;;;;;;;;16.00;94.00;;;;;;4300767;33;44191;-76